createdAt,value
2023-02-02T00:02:15.819Z,86.55
2023-02-02T00:04:45.573Z,86.25
2023-02-02T00:07:16.232Z,86.65
2023-02-02T00:09:46.811Z,86.96
2023-02-02T00:12:18.182Z,86.61
2023-02-02T00:14:48.238Z,86.61
2023-02-02T00:17:18.420Z,86.90
2023-02-02T00:19:50.286Z,87.08
2023-02-02T00:22:20.360Z,86.88
2023-02-02T00:24:50.211Z,87.09
2023-02-02T00:27:20.757Z,87.35
2023-02-02T00:29:54.723Z,87.66
2023-02-02T00:32:27.014Z,87.44
2023-02-02T00:34:57.166Z,87.85
2023-02-02T00:37:28.381Z,87.64
2023-02-02T00:39:59.202Z,87.58
2023-02-02T00:42:31.560Z,87.57
2023-02-02T00:45:19.753Z,87.62
2023-02-02T00:47:51.173Z,87.55
2023-02-02T00:50:22.990Z,87.65
2023-02-02T00:52:53.716Z,87.77
2023-02-02T00:55:24.319Z,87.82
2023-02-02T00:57:55.089Z,88.26
2023-02-02T01:00:28.718Z,88.25
2023-02-02T01:03:05.748Z,88.44
2023-02-02T01:05:36.899Z,88.71
2023-02-02T01:08:08.313Z,89.27
2023-02-02T01:10:39.319Z,89.44
2023-02-02T01:13:12.125Z,89.82
2023-02-02T01:15:42.299Z,89.49
2023-02-02T01:18:13.176Z,89.51
2023-02-02T01:20:44.551Z,89.48
2023-02-02T01:23:15.547Z,89.73
2023-02-02T01:25:47.565Z,89.93
2023-02-02T01:28:18.163Z,90.26
2023-02-02T01:30:49.038Z,90.32
2023-02-02T01:33:20.744Z,90.47
2023-02-02T01:35:57.269Z,90.80
2023-02-02T01:38:28.305Z,91.29
2023-02-02T01:40:59.390Z,91.59
2023-02-02T01:43:46.446Z,91.99
2023-02-02T01:46:19.233Z,92.19
2023-02-02T01:48:55.927Z,92.50
2023-02-02T01:51:32.425Z,92.95
2023-02-02T01:54:04.582Z,92.99
2023-02-02T01:56:39.003Z,93.25
2023-02-02T01:59:11.150Z,93.31
2023-02-02T02:01:41.573Z,93.40
2023-02-02T02:04:12.910Z,93.59
2023-02-02T02:06:43.747Z,93.78
2023-02-02T02:09:13.541Z,93.87
2023-02-02T02:11:44.141Z,93.97
2023-02-02T02:14:34.678Z,93.90
2023-02-02T02:17:27.415Z,93.73
2023-02-02T02:20:24.567Z,94.24
2023-02-02T02:23:47.935Z,94.20
2023-02-02T02:26:48.680Z,94.32
2023-02-02T02:29:25.917Z,94.52
2023-02-02T02:32:37.215Z,94.53
2023-02-02T02:35:31.104Z,94.75
2023-02-02T02:38:20.953Z,94.39
2023-02-02T02:40:59.579Z,94.75
2023-02-02T02:43:35.202Z,94.86
2023-02-02T02:46:07.055Z,95.16
2023-02-02T02:48:37.665Z,95.06
2023-02-02T02:51:45.659Z,94.50
2023-02-02T02:54:41.202Z,94.62
2023-02-02T02:57:20.073Z,94.84
2023-02-02T03:00:00.462Z,95.13
2023-02-02T03:03:07.663Z,95.07
2023-02-02T03:06:02.096Z,95.33
2023-02-02T03:08:43.013Z,95.48
2023-02-02T03:11:16.139Z,95.59
2023-02-02T03:13:46.542Z,95.79
2023-02-02T03:16:18.446Z,96.00
2023-02-02T03:18:51.143Z,95.88
2023-02-02T03:21:21.638Z,95.79
2023-02-02T03:23:52.729Z,96.07
2023-02-02T03:26:23.286Z,96.07
2023-02-02T03:28:56.607Z,96.58
2023-02-02T03:31:30.541Z,96.59
2023-02-02T03:34:00.822Z,96.74
2023-02-02T03:36:30.839Z,96.73
2023-02-02T03:39:01.243Z,97.12
2023-02-02T03:41:31.928Z,97.40
2023-02-02T03:44:02.078Z,97.73
2023-02-02T03:46:31.893Z,97.74
2023-02-02T03:49:02.538Z,97.84
2023-02-02T03:51:32.717Z,97.85
2023-02-02T03:54:04.553Z,97.72
2023-02-02T03:56:34.555Z,98.10
2023-02-02T03:59:04.688Z,98.19
2023-02-02T04:01:35.389Z,98.16
2023-02-02T04:04:05.653Z,98.28
2023-02-02T04:06:37.312Z,98.42
2023-02-02T04:09:07.570Z,98.47
2023-02-02T04:11:38.481Z,98.19
2023-02-02T04:14:11.929Z,98.39
2023-02-02T04:16:42.406Z,98.36
2023-02-02T04:19:15.707Z,98.61
2023-02-02T04:21:46.684Z,98.62
2023-02-02T04:24:17.166Z,98.71
2023-02-02T04:26:48.899Z,98.80
2023-02-02T04:29:19.707Z,99.02
2023-02-02T04:31:49.591Z,98.93
2023-02-02T04:34:19.937Z,98.85
2023-02-02T04:36:51.385Z,98.91
2023-02-02T04:39:22.787Z,99.16
2023-02-02T04:41:54.338Z,99.12
2023-02-02T04:44:24.715Z,99.15
2023-02-02T04:46:54.796Z,99.26
2023-02-02T04:49:25.695Z,98.96
2023-02-02T04:51:55.967Z,99.12
2023-02-02T04:54:26.353Z,99.23
2023-02-02T04:56:56.066Z,99.38
2023-02-02T04:59:26.330Z,99.51
2023-02-02T05:01:57.443Z,99.70
2023-02-02T05:04:29.654Z,99.57
2023-02-02T05:06:59.751Z,99.53
2023-02-02T05:09:29.516Z,99.81
2023-02-02T05:12:00.895Z,99.80
2023-02-02T05:14:31.561Z,99.59
2023-02-02T05:17:01.468Z,99.63
2023-02-02T05:19:31.725Z,99.43
2023-02-02T05:22:01.490Z,99.68
2023-02-02T05:24:35.204Z,99.81
2023-02-02T05:27:06.136Z,99.99
2023-02-02T05:29:35.852Z,99.91
2023-02-02T05:32:06.590Z,99.99
2023-02-02T05:34:36.665Z,99.99
2023-02-02T05:37:08.228Z,99.99
2023-02-02T05:39:38.498Z,99.99
2023-02-02T05:42:08.709Z,99.94
2023-02-02T05:44:39.854Z,99.87
2023-02-02T05:47:10.215Z,99.99
2023-02-02T05:49:41.321Z,99.99
2023-02-02T05:52:16.675Z,99.99
2023-02-02T05:54:46.820Z,99.72
2023-02-02T05:57:16.911Z,99.79
2023-02-02T05:59:48.572Z,99.99
2023-02-02T06:02:19.606Z,99.99
2023-02-02T06:04:49.421Z,99.99
2023-02-02T06:07:20.509Z,99.99
2023-02-02T06:09:50.845Z,99.99
2023-02-02T06:12:21.031Z,99.99
2023-02-02T06:14:50.784Z,99.99
2023-02-02T06:17:21.311Z,99.99
2023-02-02T06:19:51.563Z,99.99
2023-02-02T06:22:22.451Z,99.99
2023-02-02T06:24:54.482Z,99.99
2023-02-02T06:27:24.821Z,99.99
2023-02-02T06:29:54.869Z,99.99
2023-02-02T06:32:26.813Z,99.99
2023-02-02T06:34:56.995Z,99.99
2023-02-02T06:37:28.006Z,99.99
2023-02-02T06:40:00.079Z,99.99
2023-02-02T06:42:31.762Z,99.99
2023-02-02T06:45:05.566Z,99.99
2023-02-02T06:47:36.955Z,99.99
2023-02-02T06:50:07.575Z,99.99
2023-02-02T06:52:37.637Z,99.99
2023-02-02T06:55:08.616Z,99.99
2023-02-02T06:57:38.324Z,99.99
2023-02-02T07:00:09.434Z,99.99
2023-02-02T07:02:40.464Z,99.99
2023-02-02T07:05:11.602Z,99.99
2023-02-02T07:07:42.643Z,99.99
2023-02-02T07:11:12.447Z,99.99
2023-02-02T07:13:03.748Z,99.99
2023-02-02T07:15:37.393Z,99.99
2023-02-02T07:18:08.275Z,99.99
2023-02-02T07:20:38.096Z,99.99
2023-02-02T07:23:08.847Z,99.99
2023-02-02T07:25:39.334Z,99.99
2023-02-02T07:28:09.268Z,99.99
2023-02-02T07:30:40.565Z,99.99
2023-02-02T07:33:10.430Z,99.99
2023-02-02T07:35:42.906Z,99.99
2023-02-02T07:38:13.635Z,99.99
2023-02-02T07:40:43.479Z,99.99
2023-02-02T07:43:19.600Z,99.99
2023-02-02T07:45:50.331Z,99.99
2023-02-02T07:48:21.583Z,99.99
2023-02-02T07:50:51.897Z,99.99
2023-02-02T07:53:23.031Z,99.99
2023-02-02T07:55:53.455Z,99.99
2023-02-02T07:58:25.750Z,99.99
2023-02-02T08:00:56.128Z,99.99
2023-02-02T08:03:26.700Z,99.99
2023-02-02T08:05:58.962Z,99.99
2023-02-02T08:08:29.927Z,99.99
2023-02-02T08:11:00.418Z,99.99
2023-02-02T08:13:30.417Z,99.99
2023-02-02T08:16:01.068Z,99.99
2023-02-02T08:18:31.905Z,99.99
2023-02-02T08:21:03.406Z,99.99
2023-02-02T08:23:33.861Z,99.99
2023-02-02T08:26:18.210Z,99.99
2023-02-02T08:28:51.277Z,99.99
2023-02-02T08:31:47.709Z,99.99
2023-02-02T08:34:17.756Z,99.99
2023-02-02T08:36:48.369Z,99.99
2023-02-02T08:39:19.900Z,99.99
2023-02-02T08:41:50.543Z,99.99
2023-02-02T08:44:44.766Z,99.99
2023-02-02T08:47:18.369Z,99.99
2023-02-02T08:49:48.561Z,99.99
2023-02-02T08:52:19.473Z,99.99
2023-02-02T08:54:49.203Z,99.99
2023-02-02T08:57:19.873Z,99.99
2023-02-02T08:59:50.855Z,99.99
2023-02-02T09:02:20.635Z,99.99
2023-02-02T09:04:50.811Z,99.99
2023-02-02T09:07:21.315Z,99.99
2023-02-02T09:09:54.685Z,99.99
2023-02-02T09:12:26.587Z,99.99
2023-02-02T09:14:56.541Z,99.99
2023-02-02T09:17:26.296Z,99.99
2023-02-02T09:19:57.076Z,99.99
2023-02-02T09:22:28.821Z,99.99
2023-02-02T09:24:59.199Z,99.99
2023-02-02T09:27:29.810Z,99.99
2023-02-02T09:30:00.706Z,99.99
2023-02-02T09:32:31.070Z,99.99
2023-02-02T09:35:02.781Z,99.99
2023-02-02T09:37:35.095Z,99.99
2023-02-02T09:40:05.595Z,99.99
2023-02-02T09:42:54.007Z,99.99
2023-02-02T09:45:41.025Z,99.99
2023-02-02T09:48:29.712Z,99.99
2023-02-02T09:51:07.332Z,99.99
2023-02-02T09:53:55.492Z,99.99
2023-02-02T09:56:35.385Z,99.99
2023-02-02T09:59:19.290Z,99.99
2023-02-02T10:01:57.293Z,99.91
2023-02-02T10:04:38.395Z,99.68
2023-02-02T10:07:23.029Z,98.94
2023-02-02T10:10:04.318Z,97.68
2023-02-02T10:12:56.249Z,97.90
2023-02-02T10:15:44.830Z,97.13
2023-02-02T10:18:29.138Z,97.10
2023-02-02T10:21:07.146Z,96.78
2023-02-02T10:23:43.354Z,95.95
2023-02-02T10:26:25.135Z,94.84
2023-02-02T10:29:06.855Z,94.23
2023-02-02T10:32:14.251Z,94.30
2023-02-02T10:35:03.300Z,92.95
2023-02-02T10:37:55.400Z,87.19
2023-02-02T10:40:59.475Z,84.28
2023-02-02T10:43:47.808Z,84.07
2023-02-02T10:46:41.593Z,84.13
2023-02-02T10:49:15.274Z,80.56
2023-02-02T10:52:15.475Z,78.72
2023-02-02T10:55:21.485Z,77.27
2023-02-02T10:58:08.152Z,80.72
2023-02-02T11:00:48.857Z,82.19
2023-02-02T11:03:21.516Z,82.34
2023-02-02T11:06:09.797Z,81.18
2023-02-02T11:08:49.729Z,80.13
2023-02-02T11:11:34.652Z,79.41
2023-02-02T11:14:11.352Z,77.08
2023-02-02T11:16:44.389Z,75.06
2023-02-02T11:19:29.191Z,78.37
2023-02-02T11:22:07.511Z,76.56
2023-02-02T11:24:51.244Z,76.45
2023-02-02T11:27:44.715Z,76.14
2023-02-02T11:30:24.054Z,78.90
2023-02-02T11:32:57.197Z,73.57
2023-02-02T11:35:33.353Z,74.35
2023-02-02T11:38:21.334Z,75.07
2023-02-02T11:44:07.574Z,72.44
2023-02-02T11:46:41.656Z,71.69
2023-02-02T11:49:20.654Z,73.83
2023-02-02T11:52:07.092Z,71.42
2023-02-02T11:54:40.402Z,68.26
2023-02-02T11:57:20.304Z,68.30
2023-02-02T11:59:52.961Z,66.75
2023-02-02T12:02:30.500Z,68.18
2023-02-02T12:05:12.890Z,67.52
2023-02-02T12:07:45.878Z,66.38
2023-02-02T12:10:27.777Z,65.79
2023-02-02T12:13:11.748Z,66.27
2023-02-02T12:15:53.890Z,67.87
2023-02-02T12:19:00.786Z,68.17
2023-02-02T12:21:46.101Z,66.65
2023-02-02T12:24:32.894Z,64.54
2023-02-02T12:27:37.907Z,67.26
2023-02-02T12:30:29.042Z,64.28
2023-02-02T12:33:31.110Z,63.20
2023-02-02T12:36:19.606Z,62.44
2023-02-02T12:39:12.265Z,65.56
2023-02-02T12:42:06.153Z,63.05
2023-02-02T12:44:44.947Z,61.84
2023-02-02T12:47:32.002Z,63.60
2023-02-02T12:50:14.155Z,61.19
2023-02-02T12:52:53.239Z,60.03
2023-02-02T12:55:33.080Z,60.76
2023-02-02T12:58:18.633Z,58.88
2023-02-02T13:00:58.366Z,60.39
2023-02-02T13:03:49.949Z,58.33
2023-02-02T13:06:39.179Z,56.11
2023-02-02T13:09:35.596Z,58.69
2023-02-02T13:12:14.504Z,58.06
2023-02-02T13:14:56.242Z,60.21
2023-02-02T13:17:51.161Z,62.92
2023-02-02T13:20:47.708Z,57.22
2023-02-02T13:23:18.535Z,57.89
2023-02-02T13:26:08.797Z,59.00
2023-02-02T13:29:05.104Z,62.47
2023-02-02T13:31:58.253Z,59.74
2023-02-02T13:34:31.381Z,59.55
2023-02-02T13:37:10.361Z,56.90
2023-02-02T13:40:14.351Z,59.67
2023-02-02T13:43:14.203Z,59.66
2023-02-02T13:46:03.725Z,58.35
2023-02-02T13:49:14.630Z,60.87
2023-02-02T13:52:21.417Z,58.49
2023-02-02T13:55:20.522Z,55.39
2023-02-02T13:58:16.345Z,56.57
2023-02-02T14:00:56.329Z,58.09
2023-02-02T14:03:39.731Z,55.69
2023-02-02T14:06:15.608Z,57.91
2023-02-02T14:08:58.233Z,58.03
2023-02-02T14:11:43.573Z,58.58
2023-02-02T14:14:34.257Z,59.21
2023-02-02T14:17:36.192Z,56.31
2023-02-02T14:20:10.455Z,58.78
2023-02-02T14:22:43.491Z,59.18
2023-02-02T14:25:34.808Z,58.08
2023-02-02T14:28:12.565Z,58.13
2023-02-02T14:30:43.059Z,58.10
2023-02-02T14:33:30.382Z,56.82
2023-02-02T14:36:02.900Z,57.87
2023-02-02T14:38:46.924Z,57.09
2023-02-02T14:41:43.188Z,55.61
2023-02-02T14:44:13.752Z,56.12
2023-02-02T14:46:49.423Z,55.67
2023-02-02T14:49:30.277Z,53.83
2023-02-02T14:52:06.584Z,57.02
2023-02-02T14:54:43.587Z,53.85
2023-02-02T14:57:28.911Z,53.14
2023-02-02T15:00:01.587Z,55.28
2023-02-02T15:02:36.094Z,52.38
2023-02-02T15:05:40.054Z,52.20
2023-02-02T15:08:29.694Z,54.79
2023-02-02T15:11:23.564Z,49.35
2023-02-02T15:13:59.813Z,49.02
2023-02-02T15:16:33.105Z,49.02
2023-02-02T15:19:14.582Z,52.22
2023-02-02T15:21:49.553Z,51.56
2023-02-02T15:24:30.756Z,51.66
2023-02-02T15:27:04.242Z,51.66
2023-02-02T15:29:58.122Z,54.45
2023-02-02T15:32:29.842Z,49.28
2023-02-02T15:35:09.673Z,51.01
2023-02-02T15:37:43.009Z,52.60
2023-02-02T15:40:17.456Z,48.87
2023-02-02T15:43:00.350Z,48.16
2023-02-02T15:45:32.832Z,50.06
2023-02-02T15:48:31.514Z,50.64
2023-02-02T15:51:05.574Z,48.12
2023-02-02T15:53:45.453Z,51.85
2023-02-02T15:56:33.403Z,51.05
2023-02-02T15:59:04.028Z,50.83
2023-02-02T16:01:46.317Z,51.09
2023-02-02T16:04:22.441Z,53.94
2023-02-02T16:06:53.432Z,50.71
2023-02-02T16:09:29.973Z,50.57
2023-02-02T16:12:00.669Z,54.31
2023-02-02T16:14:31.783Z,53.75
2023-02-02T16:17:41.080Z,52.52
2023-02-02T16:20:17.274Z,51.67
2023-02-02T16:22:47.822Z,54.05
2023-02-02T16:25:23.217Z,56.55
2023-02-02T16:27:54.283Z,58.24
2023-02-02T16:30:36.772Z,56.97
2023-02-02T16:33:43.558Z,52.95
2023-02-02T16:36:32.757Z,54.44
2023-02-02T16:39:03.529Z,54.00
2023-02-02T16:41:37.951Z,55.46
2023-02-02T16:44:38.014Z,51.84
2023-02-02T16:47:38.719Z,52.79
2023-02-02T16:50:11.921Z,50.35
2023-02-02T16:53:07.053Z,52.25
2023-02-02T16:55:49.774Z,52.20
2023-02-02T16:58:24.394Z,53.01
2023-02-02T17:01:13.485Z,53.68
2023-02-02T17:03:54.166Z,57.36
2023-02-02T17:06:50.454Z,59.36
2023-02-02T17:09:50.904Z,59.69
2023-02-02T17:12:36.744Z,62.65
2023-02-02T17:15:19.198Z,62.73
2023-02-02T17:17:51.748Z,61.86
2023-02-02T17:20:22.989Z,61.95
2023-02-02T17:22:59.876Z,62.16
2023-02-02T17:25:37.276Z,62.40
2023-02-02T17:28:13.154Z,62.47
2023-02-02T17:30:48.902Z,63.96
2023-02-02T17:33:20.569Z,64.87
2023-02-02T17:35:55.441Z,64.66
2023-02-02T17:38:28.912Z,64.07
2023-02-02T17:41:04.702Z,65.17
2023-02-02T17:43:36.297Z,64.86
2023-02-02T17:46:07.459Z,64.83
2023-02-02T17:48:39.036Z,65.38
2023-02-02T17:51:17.436Z,65.31
2023-02-02T17:53:48.122Z,65.66
2023-02-02T17:56:17.930Z,65.44
2023-02-02T17:58:48.518Z,65.58
2023-02-02T18:01:18.334Z,65.30
2023-02-02T18:03:49.337Z,64.89
2023-02-02T18:06:19.925Z,65.83
2023-02-02T18:08:50.120Z,65.36
2023-02-02T18:11:20.094Z,65.85
2023-02-02T18:13:50.857Z,65.71
2023-02-02T18:16:22.371Z,66.03
2023-02-02T18:18:55.441Z,65.74
2023-02-02T18:21:27.940Z,66.66
2023-02-02T18:23:59.066Z,66.24
2023-02-02T18:26:30.834Z,66.34
2023-02-02T18:29:02.413Z,64.45
2023-02-02T18:31:33.167Z,62.28
2023-02-02T18:34:03.525Z,62.84
2023-02-02T18:36:35.104Z,64.27
2023-02-02T18:39:05.889Z,65.01
2023-02-02T18:41:35.970Z,65.27
2023-02-02T18:44:05.738Z,65.10
2023-02-02T18:46:36.463Z,66.08
2023-02-02T18:49:06.877Z,67.75
2023-02-02T18:51:38.223Z,67.53
2023-02-02T18:54:08.145Z,67.79
2023-02-02T18:56:37.919Z,69.32
2023-02-02T18:59:09.919Z,68.85
2023-02-02T19:01:40.941Z,68.77
2023-02-02T19:04:11.763Z,68.70
2023-02-02T19:07:07.373Z,69.05
2023-02-02T19:09:37.937Z,69.54
2023-02-02T19:12:15.644Z,70.10
2023-02-02T19:14:46.994Z,69.90
2023-02-02T19:17:16.927Z,70.15
2023-02-02T19:19:46.736Z,70.27
2023-02-02T19:22:25.607Z,71.24
2023-02-02T19:24:56.316Z,71.99
2023-02-02T19:27:28.455Z,71.95
2023-02-02T19:30:05.525Z,71.29
2023-02-02T19:32:37.793Z,71.50
2023-02-02T19:35:17.591Z,72.10
2023-02-02T19:37:49.701Z,72.30
2023-02-02T19:40:25.428Z,73.15
2023-02-02T19:42:59.402Z,72.79
2023-02-02T19:45:35.597Z,73.19
2023-02-02T19:48:26.815Z,73.75
2023-02-02T19:50:57.116Z,73.08
2023-02-02T19:53:38.825Z,74.67
2023-02-02T19:56:41.903Z,71.96
2023-02-02T19:59:18.885Z,73.65
2023-02-02T20:01:51.780Z,73.74
2023-02-02T20:04:22.267Z,74.36
2023-02-02T20:06:59.429Z,74.10
2023-02-02T20:09:36.369Z,73.84
2023-02-02T20:12:33.278Z,73.86
2023-02-02T20:15:04.630Z,75.03
2023-02-02T20:17:37.022Z,74.86
2023-02-02T20:20:27.230Z,73.66
2023-02-02T20:22:58.895Z,74.36
2023-02-02T20:25:30.493Z,74.59
2023-02-02T20:28:17.935Z,75.31
2023-02-02T20:30:49.042Z,75.43
2023-02-02T20:33:25.954Z,75.79
2023-02-02T20:35:56.257Z,76.11
2023-02-02T20:38:30.466Z,76.09
2023-02-02T20:41:01.884Z,75.99
2023-02-02T20:43:32.045Z,75.65
2023-02-02T20:46:01.873Z,75.57
2023-02-02T20:48:32.232Z,75.85
2023-02-02T20:51:02.692Z,76.22
2023-02-02T20:53:34.741Z,76.38
2023-02-02T20:56:04.867Z,76.22
2023-02-02T20:58:34.728Z,76.46
2023-02-02T21:01:06.593Z,76.65
2023-02-02T21:03:38.173Z,76.90
2023-02-02T21:06:08.608Z,77.18
2023-02-02T21:08:38.507Z,77.28
2023-02-02T21:11:08.711Z,76.73
2023-02-02T21:13:39.091Z,77.16
2023-02-02T21:16:10.351Z,77.66
2023-02-02T21:18:41.674Z,77.86
2023-02-02T21:21:12.121Z,78.18
2023-02-02T21:23:47.320Z,78.72
2023-02-02T21:28:55.677Z,78.16
2023-02-02T21:31:26.749Z,78.87
2023-02-02T21:33:57.716Z,79.37
2023-02-02T21:36:38.628Z,79.65
2023-02-02T21:39:31.818Z,79.12
2023-02-02T21:42:10.999Z,79.87
2023-02-02T21:44:52.728Z,80.46
2023-02-02T21:47:36.151Z,80.79
2023-02-02T21:50:27.441Z,81.34
2023-02-02T21:53:22.181Z,81.06
2023-02-02T21:56:01.277Z,82.14
2023-02-02T21:58:45.729Z,82.51
2023-02-02T22:01:43.020Z,81.87
2023-02-02T22:04:26.054Z,81.74
2023-02-02T22:07:01.190Z,82.67
2023-02-02T22:09:42.062Z,82.86
2023-02-02T22:12:29.840Z,83.08
2023-02-02T22:15:03.074Z,83.26
2023-02-02T22:17:44.672Z,82.47
2023-02-02T22:20:27.859Z,83.56
2023-02-02T22:22:58.595Z,83.76
2023-02-02T22:25:38.744Z,84.22
2023-02-02T22:28:20.864Z,84.39
2023-02-02T22:30:53.277Z,84.26
2023-02-02T22:33:24.660Z,84.41
2023-02-02T22:35:55.713Z,84.62
2023-02-02T22:38:27.010Z,84.62
2023-02-02T22:40:57.971Z,84.63
2023-02-02T22:43:27.984Z,84.83
2023-02-02T22:45:57.744Z,84.72
2023-02-02T22:48:28.477Z,85.24
2023-02-02T22:50:58.183Z,85.35
2023-02-02T22:53:28.290Z,85.74
2023-02-02T22:55:58.553Z,86.26
2023-02-02T22:58:30.032Z,86.46
2023-02-02T23:01:00.734Z,86.36
2023-02-02T23:03:30.487Z,86.36
2023-02-02T23:06:00.763Z,86.68
2023-02-02T23:08:31.035Z,86.64
2023-02-02T23:11:01.496Z,86.81
2023-02-02T23:13:31.504Z,86.95
2023-02-02T23:16:01.670Z,87.15
2023-02-02T23:18:31.611Z,87.03
2023-02-02T23:21:02.439Z,86.59
2023-02-02T23:23:33.032Z,86.71
2023-02-02T23:26:03.056Z,86.64
2023-02-02T23:28:32.975Z,86.73
2023-02-02T23:31:04.933Z,86.95
2023-02-02T23:33:35.888Z,87.29
2023-02-02T23:36:06.261Z,87.31
2023-02-02T23:38:36.084Z,87.28
2023-02-02T23:41:06.728Z,87.01
2023-02-02T23:43:36.926Z,86.87
2023-02-02T23:46:08.717Z,87.40
2023-02-02T23:48:39.373Z,87.34
2023-02-02T23:51:09.185Z,87.72
2023-02-02T23:53:40.607Z,87.60
2023-02-02T23:56:11.126Z,87.41
2023-02-02T23:58:41.276Z,87.09
